sensor_id;sensor_type;location;lat;lon;timestamp;pressure;altitude;pressure_sealevel;temperature;humidity
15260;BME280;34462;51.368;12.364;2022-08-14T00:02:14;21196.09;;;-141.84;67.14
15260;BME280;34462;51.368;12.364;2022-08-14T00:04:42;21187.97;;;-141.84;67.35
15260;BME280;34462;51.368;12.364;2022-08-14T00:07:12;21143.22;;;-141.84;67.21
15260;BME280;34462;51.368;12.364;2022-08-14T00:09:41;21216.41;;;-141.84;66.30
15260;BME280;34462;51.368;12.364;2022-08-14T00:12:33;21200.16;;;-141.84;66.64
15260;BME280;34462;51.368;12.364;2022-08-14T00:15:25;21177.78;;;-141.84;66.90
15260;BME280;34462;51.368;12.364;2022-08-14T00:18:05;21175.75;;;-141.84;67.40
15260;BME280;34462;51.368;12.364;2022-08-14T00:20:42;21114.75;;;-141.84;67.87
15260;BME280;34462;51.368;12.364;2022-08-14T00:23:15;21129.00;;;-141.84;68.06
15260;BME280;34462;51.368;12.364;2022-08-14T00:25:50;21114.75;;;-141.84;68.26
15260;BME280;34462;51.368;12.364;2022-08-14T00:28:33;21106.63;;;-141.84;67.89
15260;BME280;34462;51.368;12.364;2022-08-14T00:31:04;21106.63;;;-141.84;68.13
15260;BME280;34462;51.368;12.364;2022-08-14T00:33:36;21088.34;;;-141.84;68.20
15260;BME280;34462;51.368;12.364;2022-08-14T00:36:20;21131.03;;;-141.84;68.47
15260;BME280;34462;51.368;12.364;2022-08-14T00:39:12;21122.91;;;-141.84;68.33
15260;BME280;34462;51.368;12.364;2022-08-14T00:41:44;21131.03;;;-141.84;68.05
15260;BME280;34462;51.368;12.364;2022-08-14T00:44:14;21135.09;;;-141.84;67.73
15260;BME280;34462;51.368;12.364;2022-08-14T00:46:59;21129.00;;;-141.84;67.77
15260;BME280;34462;51.368;12.364;2022-08-14T00:49:28;21124.94;;;-141.84;68.02
15260;BME280;34462;51.368;12.364;2022-08-14T00:52:10;21135.09;;;-141.84;68.03
15260;BME280;34462;51.368;12.364;2022-08-14T00:54:41;21131.03;;;-141.84;68.24
15260;BME280;34462;51.368;12.364;2022-08-14T00:57:11;21090.38;;;-141.84;68.22
15260;BME280;34462;51.368;12.364;2022-08-14T00:59:41;21145.25;;;-141.84;67.54
15260;BME280;34462;51.368;12.364;2022-08-14T01:02:11;21171.69;;;-141.84;66.93
15260;BME280;34462;51.368;12.364;2022-08-14T01:04:40;21163.56;;;-141.84;66.78
15260;BME280;34462;51.368;12.364;2022-08-14T01:07:21;21139.16;;;-141.84;66.97
15260;BME280;34462;51.368;12.364;2022-08-14T01:09:56;21165.59;;;-141.84;67.24
15260;BME280;34462;51.368;12.364;2022-08-14T01:12:28;21165.59;;;-141.84;67.44
15260;BME280;34462;51.368;12.364;2022-08-14T01:15:00;21090.38;;;-141.84;67.85
15260;BME280;34462;51.368;12.364;2022-08-14T01:17:31;21090.38;;;-141.84;67.85
15260;BME280;34462;51.368;12.364;2022-08-14T01:20:16;21061.91;;;-141.84;68.37
15260;BME280;34462;51.368;12.364;2022-08-14T01:23:10;21068.00;;;-141.84;68.85
15260;BME280;34462;51.368;12.364;2022-08-14T01:25:46;21043.59;;;-141.84;69.23
15260;BME280;34462;51.368;12.364;2022-08-14T01:28:14;21059.88;;;-141.84;69.33
15260;BME280;34462;51.368;12.364;2022-08-14T01:31:09;21045.63;;;-141.84;69.71
15260;BME280;34462;51.368;12.364;2022-08-14T01:33:40;21019.22;;;-141.84;70.08
15260;BME280;34462;51.368;12.364;2022-08-14T01:36:30;21013.13;;;-141.84;70.43
15260;BME280;34462;51.368;12.364;2022-08-14T01:39:08;21025.31;;;-141.84;70.62
15260;BME280;34462;51.368;12.364;2022-08-14T01:41:41;20960.25;;;-141.84;70.80
15260;BME280;34462;51.368;12.364;2022-08-14T01:44:13;20958.22;;;-141.84;71.02
15260;BME280;34462;51.368;12.364;2022-08-14T01:47:04;20988.72;;;-141.84;70.91
15260;BME280;34462;51.368;12.364;2022-08-14T01:49:48;20956.19;;;-141.84;70.88
15260;BME280;34462;51.368;12.364;2022-08-14T01:52:32;20978.56;;;-141.84;70.69
15260;BME280;34462;51.368;12.364;2022-08-14T01:55:25;20944.00;;;-141.84;71.20
15260;BME280;34462;51.368;12.364;2022-08-14T01:57:59;20974.50;;;-141.84;70.99
15260;BME280;34462;51.368;12.364;2022-08-14T02:00:48;20964.31;;;-141.84;70.53
15260;BME280;34462;51.368;12.364;2022-08-14T02:03:22;20980.59;;;-141.84;70.58
15260;BME280;34462;51.368;12.364;2022-08-14T02:05:56;20968.38;;;-141.84;71.15
15260;BME280;34462;51.368;12.364;2022-08-14T02:08:31;20964.31;;;-141.84;71.25
15260;BME280;34462;51.368;12.364;2022-08-14T02:11:20;21009.03;;;-141.84;70.79
15260;BME280;34462;51.368;12.364;2022-08-14T02:13:55;21027.34;;;-141.84;70.22
15260;BME280;34462;51.368;12.364;2022-08-14T02:16:36;21002.94;;;-141.84;70.33
15260;BME280;34462;51.368;12.364;2022-08-14T02:19:09;20992.78;;;-141.84;70.80
15260;BME280;34462;51.368;12.364;2022-08-14T02:21:38;20962.28;;;-141.84;71.49
15260;BME280;34462;51.368;12.364;2022-08-14T02:24:14;20958.22;;;-141.84;71.29
15260;BME280;34462;51.368;12.364;2022-08-14T02:27:04;20960.25;;;-141.84;71.50
15260;BME280;34462;51.368;12.364;2022-08-14T02:29:52;20919.59;;;-141.84;71.64
15260;BME280;34462;51.368;12.364;2022-08-14T02:32:28;20931.78;;;-141.84;71.85
15260;BME280;34462;51.368;12.364;2022-08-14T02:35:12;20929.75;;;-141.84;72.26
15260;BME280;34462;51.368;12.364;2022-08-14T02:37:44;20925.69;;;-141.84;72.33
15260;BME280;34462;51.368;12.364;2022-08-14T02:40:15;20937.91;;;-141.84;72.22
15260;BME280;34462;51.368;12.364;2022-08-14T02:42:46;20931.78;;;-141.84;72.20
15260;BME280;34462;51.368;12.364;2022-08-14T02:45:24;20929.75;;;-141.84;72.13
15260;BME280;34462;51.368;12.364;2022-08-14T02:48:08;20935.88;;;-141.84;71.87
15260;BME280;34462;51.368;12.364;2022-08-14T02:50:56;20917.56;;;-141.84;72.21
15260;BME280;34462;51.368;12.364;2022-08-14T02:53:27;20913.50;;;-141.84;72.41
15260;BME280;34462;51.368;12.364;2022-08-14T02:55:57;20968.38;;;-141.84;72.10
15260;BME280;34462;51.368;12.364;2022-08-14T02:58:49;20901.31;;;-141.84;71.84
15260;BME280;34462;51.368;12.364;2022-08-14T03:01:23;20899.28;;;-141.84;71.99
15260;BME280;34462;51.368;12.364;2022-08-14T03:04:14;20885.03;;;-141.84;72.35
15260;BME280;34462;51.368;12.364;2022-08-14T03:06:45;20950.09;;;-141.84;72.36
15260;BME280;34462;51.368;12.364;2022-08-14T03:09:24;20907.41;;;-141.84;72.71
15260;BME280;34462;51.368;12.364;2022-08-14T03:12:13;20927.72;;;-141.84;72.42
15260;BME280;34462;51.368;12.364;2022-08-14T03:15:00;20946.03;;;-141.84;72.33
15260;BME280;34462;51.368;12.364;2022-08-14T03:17:42;20915.53;;;-141.84;72.80
15260;BME280;34462;51.368;12.364;2022-08-14T03:20:25;20913.50;;;-141.84;73.22
15260;BME280;34462;51.368;12.364;2022-08-14T03:22:56;20921.63;;;-141.84;73.03
15260;BME280;34462;51.368;12.364;2022-08-14T03:25:26;20909.44;;;-141.84;73.00
15260;BME280;34462;51.368;12.364;2022-08-14T03:28:05;20931.78;;;-141.84;72.87
15260;BME280;34462;51.368;12.364;2022-08-14T03:30:56;20915.53;;;-141.84;72.78
15260;BME280;34462;51.368;12.364;2022-08-14T03:33:27;20911.47;;;-141.84;72.66
15260;BME280;34462;51.368;12.364;2022-08-14T03:36:07;20911.47;;;-141.84;72.76
15260;BME280;34462;51.368;12.364;2022-08-14T03:38:58;20915.53;;;-141.84;72.57
15260;BME280;34462;51.368;12.364;2022-08-14T03:41:47;20915.53;;;-141.84;72.04
15260;BME280;34462;51.368;12.364;2022-08-14T03:44:16;20907.41;;;-141.84;72.35
15260;BME280;34462;51.368;12.364;2022-08-14T03:47:06;20885.03;;;-141.84;72.64
15260;BME280;34462;51.368;12.364;2022-08-14T03:49:38;20899.28;;;-141.84;72.29
15260;BME280;34462;51.368;12.364;2022-08-14T03:52:09;20909.44;;;-141.84;72.35
15260;BME280;34462;51.368;12.364;2022-08-14T03:54:58;20895.19;;;-141.84;72.64
15260;BME280;34462;51.368;12.364;2022-08-14T03:57:27;20897.25;;;-141.84;72.98
15260;BME280;34462;51.368;12.364;2022-08-14T03:59:58;20931.78;;;-141.84;72.61
15260;BME280;34462;51.368;12.364;2022-08-14T04:02:30;20929.75;;;-141.84;72.83
15260;BME280;34462;51.368;12.364;2022-08-14T04:05:13;20870.81;;;-141.84;73.17
15260;BME280;34462;51.368;12.364;2022-08-14T04:07:43;20913.50;;;-141.84;72.64
15260;BME280;34462;51.368;12.364;2022-08-14T04:10:32;20895.19;;;-141.84;72.49
15260;BME280;34462;51.368;12.364;2022-08-14T04:13:02;20933.81;;;-141.84;72.26
15260;BME280;34462;51.368;12.364;2022-08-14T04:15:32;20925.69;;;-141.84;71.81
15260;BME280;34462;51.368;12.364;2022-08-14T04:18:21;20954.16;;;-141.84;71.62
15260;BME280;34462;51.368;12.364;2022-08-14T04:20:50;20899.28;;;-141.84;71.99
15260;BME280;34462;51.368;12.364;2022-08-14T04:23:23;20907.41;;;-141.84;72.44
15260;BME280;34462;51.368;12.364;2022-08-14T04:26:00;20913.50;;;-141.84;71.98
15260;BME280;34462;51.368;12.364;2022-08-14T04:28:29;20946.03;;;-141.84;72.12
15260;BME280;34462;51.368;12.364;2022-08-14T04:31:20;20935.88;;;-141.84;72.08
15260;BME280;34462;51.368;12.364;2022-08-14T04:34:09;20950.09;;;-141.84;71.69
15260;BME280;34462;51.368;12.364;2022-08-14T04:36:50;20964.31;;;-141.84;71.20
15260;BME280;34462;51.368;12.364;2022-08-14T04:39:36;20976.53;;;-141.84;70.92
15260;BME280;34462;51.368;12.364;2022-08-14T04:42:24;20980.59;;;-141.84;70.49
15260;BME280;34462;51.368;12.364;2022-08-14T04:45:19;21011.09;;;-141.84;69.87
15260;BME280;34462;51.368;12.364;2022-08-14T04:47:47;21007.00;;;-141.84;69.57
15260;BME280;34462;51.368;12.364;2022-08-14T04:50:38;21031.41;;;-141.84;68.88
15260;BME280;34462;51.368;12.364;2022-08-14T04:53:14;21065.97;;;-141.84;68.95
15260;BME280;34462;51.368;12.364;2022-08-14T04:55:50;21094.44;;;-141.84;67.78
15260;BME280;34462;51.368;12.364;2022-08-14T04:58:22;21135.09;;;-141.84;66.92
15260;BME280;34462;51.368;12.364;2022-08-14T05:01:01;21151.34;;;-141.84;67.06
15260;BME280;34462;51.368;12.364;2022-08-14T05:03:39;21167.63;;;-141.84;66.57
15260;BME280;34462;51.368;12.364;2022-08-14T05:06:11;21200.16;;;-141.84;65.52
15260;BME280;34462;51.368;12.364;2022-08-14T05:08:59;21240.81;;;-141.84;64.48
15260;BME280;34462;51.368;12.364;2022-08-14T05:11:27;21232.69;;;-141.84;64.28
15260;BME280;34462;51.368;12.364;2022-08-14T05:14:02;21236.75;;;-141.84;64.47
15260;BME280;34462;51.368;12.364;2022-08-14T05:16:51;21216.41;;;-141.84;64.45
15260;BME280;34462;51.368;12.364;2022-08-14T05:19:22;21275.38;;;-141.84;64.89
15260;BME280;34462;51.368;12.364;2022-08-14T05:21:56;21257.09;;;-141.84;64.78
15260;BME280;34462;51.368;12.364;2022-08-14T05:24:46;21230.66;;;-141.84;65.45
15260;BME280;34462;51.368;12.364;2022-08-14T05:27:19;21228.63;;;-141.84;65.84
15260;BME280;34462;51.368;12.364;2022-08-14T05:29:52;21242.84;;;-141.84;65.65
15260;BME280;34462;51.368;12.364;2022-08-14T05:32:24;21255.03;;;-141.84;65.31
15260;BME280;34462;51.368;12.364;2022-08-14T05:34:55;21253.00;;;-141.84;65.13
15260;BME280;34462;51.368;12.364;2022-08-14T05:37:26;21273.34;;;-141.84;64.35
15260;BME280;34462;51.368;12.364;2022-08-14T05:39:58;21301.81;;;-141.84;64.20
15260;BME280;34462;51.368;12.364;2022-08-14T05:42:27;21269.28;;;-141.84;64.01
15260;BME280;34462;51.368;12.364;2022-08-14T05:45:02;21287.56;;;-141.84;63.85
15260;BME280;34462;51.368;12.364;2022-08-14T05:47:40;21305.88;;;-141.84;64.33
15260;BME280;34462;51.368;12.364;2022-08-14T05:50:12;21338.41;;;-141.84;63.18
15260;BME280;34462;51.368;12.364;2022-08-14T05:52:47;21436.00;;;-141.84;62.72
15260;BME280;34462;51.368;12.364;2022-08-14T05:55:19;21446.16;;;-141.84;61.85
15260;BME280;34462;51.368;12.364;2022-08-14T05:57:54;21480.72;;;-141.84;60.93
15260;BME280;34462;51.368;12.364;2022-08-14T06:00:29;21503.09;;;-141.84;61.05
15260;BME280;34462;51.368;12.364;2022-08-14T06:03:13;21529.53;;;-141.84;61.08
15260;BME280;34462;51.368;12.364;2022-08-14T06:05:44;21515.28;;;-141.84;60.89
15260;BME280;34462;51.368;12.364;2022-08-14T06:08:22;21586.47;;;-141.84;60.53
15260;BME280;34462;51.368;12.364;2022-08-14T06:11:09;21592.56;;;-141.84;59.95
15260;BME280;34462;51.368;12.364;2022-08-14T06:13:46;21590.53;;;-141.84;59.38
15260;BME280;34462;51.368;12.364;2022-08-14T06:16:17;21612.88;;;-141.84;59.55
15260;BME280;34462;51.368;12.364;2022-08-14T06:18:47;21619.00;;;-141.84;59.15
15260;BME280;34462;51.368;12.364;2022-08-14T06:21:19;21635.25;;;-141.84;59.07
15260;BME280;34462;51.368;12.364;2022-08-14T06:23:50;21741.00;;;-141.84;58.49
15260;BME280;34462;51.368;12.364;2022-08-14T06:26:18;21771.50;;;-141.84;58.35
15260;BME280;34462;51.368;12.364;2022-08-14T06:28:48;21761.31;;;-141.84;57.81
15260;BME280;34462;51.368;12.364;2022-08-14T06:31:18;21773.53;;;-141.84;57.49
15260;BME280;34462;51.368;12.364;2022-08-14T06:33:48;21812.16;;;-141.84;57.32
15260;BME280;34462;51.368;12.364;2022-08-14T06:36:36;21871.13;;;-141.84;57.20
15260;BME280;34462;51.368;12.364;2022-08-14T06:39:07;21875.19;;;-141.84;56.75
15260;BME280;34462;51.368;12.364;2022-08-14T06:41:36;21903.66;;;-141.84;57.13
15260;BME280;34462;51.368;12.364;2022-08-14T06:44:25;21926.03;;;-141.84;56.84
15260;BME280;34462;51.368;12.364;2022-08-14T06:46:59;21907.72;;;-141.84;56.60
15260;BME280;34462;51.368;12.364;2022-08-14T06:49:28;21952.47;;;-141.84;56.58
15260;BME280;34462;51.368;12.364;2022-08-14T06:52:06;21985.00;;;-141.84;56.05
15260;BME280;34462;51.368;12.364;2022-08-14T06:54:35;21954.50;;;-141.84;56.18
15260;BME280;34462;51.368;12.364;2022-08-14T06:57:05;22017.53;;;-141.84;55.62
15260;BME280;34462;51.368;12.364;2022-08-14T06:59:37;22046.00;;;-141.84;55.50
15260;BME280;34462;51.368;12.364;2022-08-14T07:02:09;22023.63;;;-141.84;55.59
15260;BME280;34462;51.368;12.364;2022-08-14T07:04:55;21999.25;;;-141.84;55.99
15260;BME280;34462;51.368;12.364;2022-08-14T07:07:47;21993.13;;;-141.84;56.05
15260;BME280;34462;51.368;12.364;2022-08-14T07:10:18;22009.41;;;-141.84;55.91
15260;BME280;34462;51.368;12.364;2022-08-14T07:12:51;21997.19;;;-141.84;55.69
15260;BME280;34462;51.368;12.364;2022-08-14T07:15:30;22007.38;;;-141.84;56.32
15260;BME280;34462;51.368;12.364;2022-08-14T07:18:00;22037.88;;;-141.84;56.22
15260;BME280;34462;51.368;12.364;2022-08-14T07:20:34;22015.50;;;-141.84;56.19
15260;BME280;34462;51.368;12.364;2022-08-14T07:23:05;21995.16;;;-141.84;56.23
15260;BME280;34462;51.368;12.364;2022-08-14T07:25:40;22001.28;;;-141.84;56.66
15260;BME280;34462;51.368;12.364;2022-08-14T07:28:13;22021.59;;;-141.84;56.20
15260;BME280;34462;51.368;12.364;2022-08-14T07:30:47;22019.56;;;-141.84;56.54
15260;BME280;34462;51.368;12.364;2022-08-14T07:33:18;22062.28;;;-141.84;55.99
15260;BME280;34462;51.368;12.364;2022-08-14T07:35:58;22033.81;;;-141.84;55.99
15260;BME280;34462;51.368;12.364;2022-08-14T07:38:27;22064.31;;;-141.84;55.84
15260;BME280;34462;51.368;12.364;2022-08-14T07:41:06;22052.09;;;-141.84;56.08
15260;BME280;34462;51.368;12.364;2022-08-14T07:43:43;22107.00;;;-141.84;55.13
15260;BME280;34462;51.368;12.364;2022-08-14T07:46:21;22131.41;;;-141.84;55.07
15260;BME280;34462;51.368;12.364;2022-08-14T07:48:54;22123.28;;;-141.84;55.08
15260;BME280;34462;51.368;12.364;2022-08-14T07:51:24;22182.25;;;-141.84;54.81
15260;BME280;34462;51.368;12.364;2022-08-14T07:54:04;22163.94;;;-141.84;54.58
15260;BME280;34462;51.368;12.364;2022-08-14T07:56:40;22182.25;;;-141.84;54.50
15260;BME280;34462;51.368;12.364;2022-08-14T07:59:15;22182.25;;;-141.84;54.17
15260;BME280;34462;51.368;12.364;2022-08-14T08:01:44;22237.16;;;-141.84;54.26
15260;BME280;34462;51.368;12.364;2022-08-14T08:04:22;22271.72;;;-141.84;53.31
15260;BME280;34462;51.368;12.364;2022-08-14T08:06:54;22241.22;;;-141.84;53.16
15260;BME280;34462;51.368;12.364;2022-08-14T08:09:25;22241.22;;;-141.84;53.33
15260;BME280;34462;51.368;12.364;2022-08-14T08:12:02;22255.47;;;-141.84;53.08
15260;BME280;34462;51.368;12.364;2022-08-14T08:14:40;22249.38;;;-141.84;52.82
15260;BME280;34462;51.368;12.364;2022-08-14T08:17:29;22231.06;;;-141.84;53.02
15260;BME280;34462;51.368;12.364;2022-08-14T08:20:06;22263.59;;;-141.84;52.12
15260;BME280;34462;51.368;12.364;2022-08-14T08:22:37;22294.09;;;-141.84;52.34
15260;BME280;34462;51.368;12.364;2022-08-14T08:25:09;22314.44;;;-141.84;51.98
15260;BME280;34462;51.368;12.364;2022-08-14T08:27:41;22330.72;;;-141.84;52.05
15260;BME280;34462;51.368;12.364;2022-08-14T08:30:12;22306.31;;;-141.84;52.28
15260;BME280;34462;51.368;12.364;2022-08-14T08:32:42;22383.59;;;-141.84;51.54
15260;BME280;34462;51.368;12.364;2022-08-14T08:35:17;22373.41;;;-141.84;51.50
15260;BME280;34462;51.368;12.364;2022-08-14T08:37:47;22405.97;;;-141.84;50.75
15260;BME280;34462;51.368;12.364;2022-08-14T08:40:32;22420.19;;;-141.84;50.55
15260;BME280;34462;51.368;12.364;2022-08-14T08:43:19;22428.31;;;-141.84;50.78
15260;BME280;34462;51.368;12.364;2022-08-14T08:45:54;22458.84;;;-141.84;50.86
15260;BME280;34462;51.368;12.364;2022-08-14T08:48:26;22460.88;;;-141.84;51.09
15260;BME280;34462;51.368;12.364;2022-08-14T08:51:04;22538.16;;;-141.84;49.88
15260;BME280;34462;51.368;12.364;2022-08-14T08:53:34;22523.91;;;-141.84;49.95
15260;BME280;34462;51.368;12.364;2022-08-14T08:56:03;22593.06;;;-141.84;49.46
15260;BME280;34462;51.368;12.364;2022-08-14T08:58:36;22599.16;;;-141.84;49.19
15260;BME280;34462;51.368;12.364;2022-08-14T09:01:05;22621.53;;;-141.84;49.28
15260;BME280;34462;51.368;12.364;2022-08-14T09:03:33;22603.22;;;-141.84;49.01
15260;BME280;34462;51.368;12.364;2022-08-14T09:06:10;22633.75;;;-141.84;49.02
15260;BME280;34462;51.368;12.364;2022-08-14T09:08:58;22662.22;;;-141.84;48.64
15260;BME280;34462;51.368;12.364;2022-08-14T09:11:27;22711.03;;;-141.84;48.55
15260;BME280;34462;51.368;12.364;2022-08-14T09:13:56;22702.88;;;-141.84;48.41
15260;BME280;34462;51.368;12.364;2022-08-14T09:16:26;22709.00;;;-141.84;48.45
15260;BME280;34462;51.368;12.364;2022-08-14T09:18:54;22719.16;;;-141.84;48.39
15260;BME280;34462;51.368;12.364;2022-08-14T09:21:23;22713.06;;;-141.84;48.57
15260;BME280;34462;51.368;12.364;2022-08-14T09:23:58;22757.81;;;-141.84;47.72
15260;BME280;34462;51.368;12.364;2022-08-14T09:26:46;22725.25;;;-141.84;47.95
15260;BME280;34462;51.368;12.364;2022-08-14T09:29:18;22725.25;;;-141.84;48.12
15260;BME280;34462;51.368;12.364;2022-08-14T09:31:54;22753.75;;;-141.84;48.05
15260;BME280;34462;51.368;12.364;2022-08-14T09:34:46;22759.84;;;-141.84;48.33
15260;BME280;34462;51.368;12.364;2022-08-14T09:37:37;22804.59;;;-141.84;47.97
15260;BME280;34462;51.368;12.364;2022-08-14T09:40:23;22794.41;;;-141.84;47.15
15260;BME280;34462;51.368;12.364;2022-08-14T09:43:10;22826.97;;;-141.84;47.30
15260;BME280;34462;51.368;12.364;2022-08-14T09:45:49;22871.72;;;-141.84;46.86
15260;BME280;34462;51.368;12.364;2022-08-14T09:48:21;22883.91;;;-141.84;46.91
15260;BME280;34462;51.368;12.364;2022-08-14T09:50:58;22869.66;;;-141.84;46.56
15260;BME280;34462;51.368;12.364;2022-08-14T09:53:36;22928.66;;;-141.84;46.26
15260;BME280;34462;51.368;12.364;2022-08-14T09:56:28;22949.00;;;-141.84;45.72
15260;BME280;34462;51.368;12.364;2022-08-14T09:59:11;22904.25;;;-141.84;46.19
15260;BME280;34462;51.368;12.364;2022-08-14T10:01:43;22912.38;;;-141.84;46.22
15260;BME280;34462;51.368;12.364;2022-08-14T10:04:21;22883.91;;;-141.84;46.25
15260;BME280;34462;51.368;12.364;2022-08-14T10:07:02;22924.59;;;-141.84;45.91
15260;BME280;34462;51.368;12.364;2022-08-14T10:09:31;22936.78;;;-141.84;45.48
15260;BME280;34462;51.368;12.364;2022-08-14T10:12:02;22942.91;;;-141.84;45.62
15260;BME280;34462;51.368;12.364;2022-08-14T10:14:44;22951.03;;;-141.84;45.15
15260;BME280;34462;51.368;12.364;2022-08-14T10:17:22;23001.88;;;-141.84;44.66
15260;BME280;34462;51.368;12.364;2022-08-14T10:19:55;22973.41;;;-141.84;44.95
15260;BME280;34462;51.368;12.364;2022-08-14T10:22:25;22997.81;;;-141.84;44.80
15260;BME280;34462;51.368;12.364;2022-08-14T10:25:16;23026.28;;;-141.84;44.39
15260;BME280;34462;51.368;12.364;2022-08-14T10:27:56;23095.44;;;-141.84;43.74
15260;BME280;34462;51.368;12.364;2022-08-14T10:30:33;23146.28;;;-141.84;43.37
15260;BME280;34462;51.368;12.364;2022-08-14T10:33:05;23136.13;;;-141.84;42.75
15260;BME280;34462;51.368;12.364;2022-08-14T10:35:42;23172.75;;;-141.84;42.71
15260;BME280;34462;51.368;12.364;2022-08-14T10:38:25;23117.81;;;-141.84;42.83
15260;BME280;34462;51.368;12.364;2022-08-14T10:40:53;23115.78;;;-141.84;42.64
15260;BME280;34462;51.368;12.364;2022-08-14T10:43:28;23162.56;;;-141.84;42.70
15260;BME280;34462;51.368;12.364;2022-08-14T10:45:59;23233.75;;;-141.84;42.29
15260;BME280;34462;51.368;12.364;2022-08-14T10:49:00;23266.31;;;-141.84;41.44
15260;BME280;34462;51.368;12.364;2022-08-14T10:51:33;23317.16;;;-141.84;40.99
15260;BME280;34462;51.368;12.364;2022-08-14T10:54:09;23274.44;;;-141.84;41.36
15260;BME280;34462;51.368;12.364;2022-08-14T10:57:11;23294.78;;;-141.84;41.12
15260;BME280;34462;51.368;12.364;2022-08-14T10:59:45;23264.28;;;-141.84;41.19
15260;BME280;34462;51.368;12.364;2022-08-14T11:02:24;23256.13;;;-141.84;41.14
15260;BME280;34462;51.368;12.364;2022-08-14T11:05:24;23292.75;;;-141.84;40.67
15260;BME280;34462;51.368;12.364;2022-08-14T11:07:57;23331.41;;;-141.84;40.23
15260;BME280;34462;51.368;12.364;2022-08-14T11:10:44;23353.78;;;-141.84;40.62
15260;BME280;34462;51.368;12.364;2022-08-14T11:13:17;23300.91;;;-141.84;40.43
15260;BME280;34462;51.368;12.364;2022-08-14T11:15:50;23339.53;;;-141.84;40.72
15260;BME280;34462;51.368;12.364;2022-08-14T11:18:19;23276.47;;;-141.84;40.86
15260;BME280;34462;51.368;12.364;2022-08-14T11:21:04;23315.13;;;-141.84;40.48
15260;BME280;34462;51.368;12.364;2022-08-14T11:23:36;23424.97;;;-141.84;39.59
15260;BME280;34462;51.368;12.364;2022-08-14T11:26:11;23494.16;;;-141.84;38.93
15260;BME280;34462;51.368;12.364;2022-08-14T11:28:45;23536.88;;;-141.84;38.85
15260;BME280;34462;51.368;12.364;2022-08-14T11:31:19;23567.38;;;-141.84;38.64
15260;BME280;34462;51.368;12.364;2022-08-14T11:33:52;23675.19;;;-141.84;37.88
15260;BME280;34462;51.368;12.364;2022-08-14T11:36:27;23734.19;;;-141.84;37.14
15260;BME280;34462;51.368;12.364;2022-08-14T11:39:20;23738.25;;;-141.84;36.51
15260;BME280;34462;51.368;12.364;2022-08-14T11:42:01;23815.56;;;-141.84;36.08
15260;BME280;34462;51.368;12.364;2022-08-14T11:44:53;23805.41;;;-141.84;36.20
15260;BME280;34462;51.368;12.364;2022-08-14T11:47:26;23933.56;;;-141.84;35.91
15260;BME280;34462;51.368;12.364;2022-08-14T11:50:12;23919.34;;;-141.84;36.03
15260;BME280;34462;51.368;12.364;2022-08-14T11:53:00;23951.88;;;-141.84;36.15
15260;BME280;34462;51.368;12.364;2022-08-14T11:55:34;23992.56;;;-141.84;35.99
15260;BME280;34462;51.368;12.364;2022-08-14T11:58:08;24086.16;;;-141.84;35.89
15260;BME280;34462;51.368;12.364;2022-08-14T12:00:46;24055.66;;;-141.84;35.48
15260;BME280;34462;51.368;12.364;2022-08-14T12:03:15;24126.84;;;-141.84;35.42
15260;BME280;34462;51.368;12.364;2022-08-14T12:06:05;24118.72;;;-141.84;35.10
15260;BME280;34462;51.368;12.364;2022-08-14T12:08:56;24086.16;;;-141.84;35.60
15260;BME280;34462;51.368;12.364;2022-08-14T12:11:38;24084.13;;;-141.84;35.74
15260;BME280;34462;51.368;12.364;2022-08-14T12:14:11;24120.75;;;-141.84;35.41
15260;BME280;34462;51.368;12.364;2022-08-14T12:17:03;24035.31;;;-141.84;36.05
15260;BME280;34462;51.368;12.364;2022-08-14T12:19:47;23964.09;;;-141.84;36.13
15260;BME280;34462;51.368;12.364;2022-08-14T12:22:33;24012.91;;;-141.84;35.57
15260;BME280;34462;51.368;12.364;2022-08-14T12:25:07;24082.09;;;-141.84;35.64
15260;BME280;34462;51.368;12.364;2022-08-14T12:27:40;24135.00;;;-141.84;35.38
15260;BME280;34462;51.368;12.364;2022-08-14T12:30:32;24116.69;;;-141.84;35.26
15260;BME280;34462;51.368;12.364;2022-08-14T12:33:21;24014.94;;;-141.84;35.18
15260;BME280;34462;51.368;12.364;2022-08-14T12:35:59;24025.13;;;-141.84;35.28
15260;BME280;34462;51.368;12.364;2022-08-14T12:38:34;24035.31;;;-141.84;35.41
15260;BME280;34462;51.368;12.364;2022-08-14T12:41:10;24104.47;;;-141.84;34.88
15260;BME280;34462;51.368;12.364;2022-08-14T12:43:49;24289.63;;;-141.84;34.46
15260;BME280;34462;51.368;12.364;2022-08-14T12:46:25;24399.50;;;-141.84;33.76
15260;BME280;34462;51.368;12.364;2022-08-14T12:48:57;24423.91;;;-141.84;33.95
15260;BME280;34462;51.368;12.364;2022-08-14T12:51:28;24647.75;;;-141.84;33.11
15260;BME280;34462;51.368;12.364;2022-08-14T12:53:58;24751.53;;;-141.84;32.68
15260;BME280;34462;51.368;12.364;2022-08-14T12:56:28;24775.94;;;-141.84;32.36
15260;BME280;34462;51.368;12.364;2022-08-14T12:59:00;24832.94;;;-141.84;32.55
15260;BME280;34462;51.368;12.364;2022-08-14T13:01:31;24975.38;;;-141.84;32.39
15260;BME280;34462;51.368;12.364;2022-08-14T13:04:20;25176.84;;;-141.84;31.84
15260;BME280;34462;51.368;12.364;2022-08-14T13:06:48;25351.88;;;-141.84;31.45
15260;BME280;34462;51.368;12.364;2022-08-14T13:09:19;25305.06;;;-141.84;31.25
15260;BME280;34462;51.368;12.364;2022-08-14T13:12:04;25009.97;;;-141.84;31.69
15260;BME280;34462;51.368;12.364;2022-08-14T13:14:56;24788.16;;;-141.84;32.03
15260;BME280;34462;51.368;12.364;2022-08-14T13:17:26;24841.06;;;-141.84;32.44
15260;BME280;34462;51.368;12.364;2022-08-14T13:20:04;24861.41;;;-141.84;32.24
15260;BME280;34462;51.368;12.364;2022-08-14T13:22:38;24932.66;;;-141.84;32.00